createdAt,value
2024-05-09T00:11:04.345Z,5.57
2024-05-09T00:31:06.221Z,5.90
2024-05-09T00:51:08.098Z,6.65
2024-05-09T01:11:10.107Z,7.10
2024-05-09T01:31:16.368Z,10.40
2024-05-09T01:51:18.132Z,7.10
2024-05-09T02:11:19.865Z,6.03
2024-05-09T02:31:21.598Z,7.70
2024-05-09T02:51:23.238Z,7.07
2024-05-09T03:11:25.803Z,6.60
2024-05-09T03:31:27.810Z,4.28
2024-05-09T03:51:30.812Z,4.65
2024-05-09T04:11:32.820Z,5.88
2024-05-09T04:31:37.923Z,5.38
2024-05-09T05:11:42.929Z,7.10
2024-05-09T05:31:44.944Z,7.28
2024-05-09T05:51:46.654Z,7.07
2024-05-09T06:11:48.522Z,6.95
2024-05-09T06:31:51.038Z,5.95
2024-05-09T06:51:52.716Z,5.00
2024-05-09T07:11:54.407Z,5.38
2024-05-09T07:31:56.569Z,3.95
2024-05-09T07:53:22.109Z,5.38
2024-05-09T08:12:21.604Z,3.90
2024-05-09T08:32:23.505Z,3.10
2024-05-09T08:52:25.264Z,5.22
2024-05-09T09:12:26.986Z,5.57
2024-05-09T09:32:30.275Z,5.53
2024-05-09T09:52:32.285Z,4.55
2024-05-09T10:12:34.249Z,4.10
2024-05-09T10:32:41.008Z,4.63
2024-05-09T11:12:46.160Z,5.78
2024-05-09T11:32:48.255Z,4.88
2024-05-09T11:52:50.058Z,3.83
2024-05-09T12:12:51.802Z,2.88
2024-05-09T12:32:53.784Z,4.15
2024-05-09T12:52:55.666Z,4.10
2024-05-09T13:12:57.379Z,4.38
2024-05-09T13:32:59.254Z,2.55
2024-05-09T13:53:01.553Z,3.72
2024-05-09T14:13:03.584Z,4.15
2024-05-09T14:33:06.699Z,4.50
2024-05-09T14:53:11.446Z,4.40
2024-05-09T15:13:16.234Z,4.25
2024-05-09T15:33:18.779Z,2.75
2024-05-09T15:53:20.735Z,5.05
2024-05-09T16:13:22.883Z,3.78
2024-05-09T16:33:26.207Z,4.80
2024-05-09T16:53:28.077Z,4.65
2024-05-09T17:13:30.531Z,3.90
2024-05-09T17:33:32.463Z,2.60
2024-05-09T17:53:34.382Z,4.05
2024-05-09T18:13:36.087Z,4.93
2024-05-09T18:33:38.158Z,4.53
2024-05-09T18:53:40.883Z,5.32
2024-05-09T19:13:43.442Z,5.97
2024-05-09T19:33:45.252Z,3.45
2024-05-09T19:53:50.960Z,4.80
2024-05-09T20:13:52.748Z,5.30
2024-05-09T20:33:54.461Z,4.32
2024-05-09T20:53:56.401Z,4.35
2024-05-09T21:13:58.264Z,4.80
2024-05-09T21:34:00.131Z,5.18
2024-05-09T21:54:02.253Z,5.32
2024-05-09T22:14:03.939Z,5.47
2024-05-09T22:34:05.802Z,5.28
2024-05-09T22:54:07.837Z,4.78
2024-05-09T23:14:09.543Z,7.07
2024-05-09T23:34:12.245Z,5.57
2024-05-09T23:54:14.057Z,5.32
